createdAt,value
2018-09-22T00:00:10.075Z,14.94
2018-09-22T00:01:10.131Z,14.89
2018-09-22T00:02:10.195Z,14.94
2018-09-22T00:03:10.263Z,14.88
2018-09-22T00:04:10.415Z,14.89
2018-09-22T00:05:10.383Z,14.85
2018-09-22T00:06:10.456Z,14.91
2018-09-22T00:07:10.507Z,14.86
2018-09-22T00:08:10.579Z,14.99
2018-09-22T00:09:10.651Z,14.85
2018-09-22T00:10:10.707Z,14.89
2018-09-22T00:11:10.760Z,14.86
2018-09-22T00:12:10.823Z,14.82
2018-09-22T00:13:10.884Z,14.72
2018-09-22T00:14:10.956Z,14.73
2018-09-22T00:15:11.020Z,14.62
2018-09-22T00:16:11.075Z,14.68
2018-09-22T00:17:11.136Z,14.63
2018-09-22T00:18:11.199Z,14.54
2018-09-22T00:19:11.528Z,14.44
2018-09-22T00:20:11.328Z,14.54
2018-09-22T00:21:11.387Z,14.59
2018-09-22T00:22:11.452Z,14.59
2018-09-22T00:23:11.517Z,14.55
2018-09-22T00:24:11.584Z,14.66
2018-09-22T00:25:11.644Z,14.60
2018-09-22T00:26:11.711Z,14.63
2018-09-22T00:27:11.766Z,14.77
2018-09-22T00:28:11.828Z,14.66
2018-09-22T00:29:11.930Z,14.66
2018-09-22T00:30:11.970Z,14.68
2018-09-22T00:31:12.021Z,14.72
2018-09-22T00:32:12.080Z,14.78
2018-09-22T00:33:12.141Z,14.78
2018-09-22T00:34:12.205Z,14.81
2018-09-22T00:35:12.361Z,14.77
2018-09-22T00:36:12.328Z,14.81
2018-09-22T00:37:12.393Z,14.79
2018-09-22T00:38:12.461Z,14.70
2018-09-22T00:39:12.518Z,14.72
2018-09-22T00:40:12.589Z,14.68
2018-09-22T00:41:12.649Z,14.68
2018-09-22T00:42:12.705Z,14.69
2018-09-22T00:43:12.769Z,14.66
2018-09-22T00:44:12.833Z,14.65
2018-09-22T00:45:12.901Z,14.72
2018-09-22T00:46:12.964Z,14.69
2018-09-22T00:47:13.025Z,14.72
2018-09-22T00:48:13.081Z,14.70
2018-09-22T00:49:13.144Z,14.70
2018-09-22T00:50:13.492Z,14.68
2018-09-22T00:51:13.273Z,14.69
2018-09-22T00:52:13.333Z,14.70
2018-09-22T00:53:13.400Z,14.70
2018-09-22T00:54:13.461Z,14.77
2018-09-22T00:55:13.529Z,14.69
2018-09-22T00:56:13.593Z,14.65
2018-09-22T00:57:13.649Z,14.70
2018-09-22T00:58:13.713Z,14.66
2018-09-22T00:59:13.773Z,14.70
2018-09-22T01:00:13.845Z,14.69
2018-09-22T01:01:13.912Z,14.72
2018-09-22T01:02:13.961Z,14.66
2018-09-22T01:03:14.026Z,14.63
2018-09-22T01:04:14.090Z,14.62
2018-09-22T01:05:14.509Z,14.60
2018-09-22T01:06:14.214Z,14.65
2018-09-22T01:07:14.277Z,14.62
2018-09-22T01:08:14.341Z,14.59
2018-09-22T01:09:14.402Z,14.50
2018-09-22T01:10:14.468Z,14.47
2018-09-22T01:11:14.794Z,14.55
2018-09-22T01:12:14.590Z,14.55
2018-09-22T01:13:14.650Z,14.55
2018-09-22T01:14:14.714Z,14.58
2018-09-22T01:15:14.780Z,14.53
2018-09-22T01:16:14.846Z,14.54
2018-09-22T01:17:14.910Z,14.44
2018-09-22T01:18:14.966Z,14.50
2018-09-22T01:19:15.034Z,14.51
2018-09-22T01:20:15.090Z,14.44
2018-09-22T01:21:15.246Z,14.45
2018-09-22T01:22:15.219Z,14.50
2018-09-22T01:23:15.278Z,14.45
2018-09-22T01:24:15.345Z,14.50
2018-09-22T01:25:15.410Z,14.51
2018-09-22T01:26:15.474Z,14.55
2018-09-22T01:27:15.538Z,14.50
2018-09-22T01:28:15.595Z,14.59
2018-09-22T01:29:15.654Z,14.43
2018-09-22T01:30:15.718Z,14.50
2018-09-22T01:31:15.795Z,14.40
2018-09-22T01:32:15.851Z,14.41
2018-09-22T01:33:15.906Z,14.35
2018-09-22T01:34:15.970Z,14.30
2018-09-22T01:35:16.035Z,14.22
2018-09-22T01:36:16.202Z,14.12
2018-09-22T01:37:16.159Z,14.22
2018-09-22T01:38:16.227Z,14.29
2018-09-22T01:39:16.284Z,14.12
2018-09-22T01:40:16.347Z,14.07
2018-09-22T01:41:16.415Z,14.25
2018-09-22T01:42:16.485Z,14.15
2018-09-22T01:43:16.536Z,14.10
2018-09-22T01:44:16.599Z,14.04
2018-09-22T01:45:16.660Z,14.11
2018-09-22T01:46:16.731Z,14.00
2018-09-22T01:47:16.800Z,13.95
2018-09-22T01:48:16.847Z,14.03
2018-09-22T01:49:16.913Z,13.95
2018-09-22T01:50:16.975Z,14.03
2018-09-22T01:51:17.047Z,14.05
2018-09-22T01:52:17.112Z,14.07
2018-09-22T01:53:17.159Z,14.14
2018-09-22T01:54:17.223Z,14.08
2018-09-22T01:55:17.287Z,14.15
2018-09-22T01:56:17.357Z,14.18
2018-09-22T01:57:17.424Z,14.05
2018-09-22T01:58:17.476Z,14.12
2018-09-22T01:59:17.535Z,14.25
2018-09-22T02:00:17.600Z,14.23
2018-09-22T02:01:17.671Z,14.17
2018-09-22T02:02:17.732Z,14.26
2018-09-22T02:03:17.788Z,14.20
2018-09-22T02:04:17.852Z,14.18
2018-09-22T02:05:17.912Z,14.28
2018-09-22T02:06:17.984Z,14.17
2018-09-22T02:07:18.056Z,14.14
2018-09-22T02:08:18.104Z,14.20
2018-09-22T02:09:18.164Z,14.15
2018-09-22T02:10:18.230Z,13.96
2018-09-22T02:11:18.288Z,13.96
2018-09-22T02:12:18.620Z,13.95
2018-09-22T02:13:18.420Z,13.89
2018-09-22T02:14:18.484Z,13.92
2018-09-22T02:15:18.540Z,13.89
2018-09-22T02:16:18.604Z,13.89
2018-09-22T02:17:18.676Z,13.87
2018-09-22T02:18:18.740Z,13.81
2018-09-22T02:19:18.793Z,13.70
2018-09-22T02:20:18.852Z,13.75
2018-09-22T02:21:18.916Z,13.75
2018-09-22T02:22:18.985Z,13.70
2018-09-22T02:23:19.049Z,13.65
2018-09-22T02:24:19.104Z,13.72
2018-09-22T02:25:19.166Z,13.67
2018-09-22T02:26:19.236Z,13.63
2018-09-22T02:27:19.561Z,13.60
2018-09-22T02:28:19.357Z,13.60
2018-09-22T02:29:19.417Z,13.67
2018-09-22T02:30:19.481Z,13.67
2018-09-22T02:31:19.541Z,13.68
2018-09-22T02:32:19.613Z,13.63
2018-09-22T02:33:19.675Z,13.65
2018-09-22T02:34:19.732Z,13.62
2018-09-22T02:35:19.793Z,13.67
2018-09-22T02:36:19.862Z,13.60
2018-09-22T02:37:19.925Z,13.65
2018-09-22T02:38:19.986Z,13.65
2018-09-22T02:39:20.065Z,13.70
2018-09-22T02:40:20.109Z,13.60
2018-09-22T02:41:20.169Z,13.72
2018-09-22T02:42:20.245Z,13.75
2018-09-22T02:43:20.293Z,13.75
2018-09-22T02:44:20.356Z,13.78
2018-09-22T02:45:20.417Z,13.79
2018-09-22T02:46:20.481Z,13.87
2018-09-22T02:47:20.557Z,13.78
2018-09-22T02:48:20.613Z,13.90
2018-09-22T02:49:20.669Z,13.83
2018-09-22T02:50:20.729Z,13.87
2018-09-22T02:51:20.793Z,13.86
2018-09-22T02:52:20.865Z,13.81
2018-09-22T02:53:20.926Z,13.77
2018-09-22T02:54:20.981Z,13.79
2018-09-22T02:55:21.045Z,13.87
2018-09-22T02:56:21.105Z,13.83
2018-09-22T02:57:21.197Z,13.85
2018-09-22T02:58:21.235Z,13.85
2018-09-22T02:59:21.294Z,13.85
2018-09-22T03:00:21.359Z,13.71
2018-09-22T03:01:21.418Z,13.75
2018-09-22T03:02:21.490Z,13.74
2018-09-22T03:03:21.550Z,13.86
2018-09-22T03:04:21.606Z,13.75
2018-09-22T03:05:21.670Z,13.86
2018-09-22T03:06:21.730Z,13.79
2018-09-22T03:07:21.802Z,13.74
2018-09-22T03:08:21.867Z,13.72
2018-09-22T03:09:21.919Z,13.72
2018-09-22T03:10:21.982Z,13.77
2018-09-22T03:11:22.079Z,13.72
2018-09-22T03:12:22.203Z,13.72
2018-09-22T03:13:22.175Z,13.68
2018-09-22T03:14:22.235Z,13.68
2018-09-22T03:15:22.329Z,13.62
2018-09-22T03:16:22.358Z,13.60
2018-09-22T03:17:22.431Z,13.59
2018-09-22T03:18:22.491Z,13.47
2018-09-22T03:19:22.548Z,13.50
2018-09-22T03:20:22.611Z,13.53
2018-09-22T03:21:22.670Z,13.46
2018-09-22T03:22:22.741Z,13.46
2018-09-22T03:23:22.803Z,13.46
2018-09-22T03:24:22.862Z,13.42
2018-09-22T03:25:22.927Z,13.44
2018-09-22T03:26:22.983Z,13.47
2018-09-22T03:27:23.056Z,13.42
2018-09-22T03:28:23.115Z,13.47
2018-09-22T03:29:23.171Z,13.46
2018-09-22T03:30:23.235Z,13.42
2018-09-22T03:31:23.299Z,13.41
2018-09-22T03:32:23.367Z,13.30
2018-09-22T03:33:23.427Z,13.47
2018-09-22T03:34:23.486Z,13.46
2018-09-22T03:35:23.549Z,13.39
2018-09-22T03:36:23.611Z,13.42
2018-09-22T03:37:23.680Z,13.47
2018-09-22T03:38:23.743Z,13.50
2018-09-22T03:39:23.803Z,13.57
2018-09-22T03:40:23.860Z,13.46
2018-09-22T03:41:23.924Z,13.47
2018-09-22T03:42:23.992Z,13.60
2018-09-22T03:43:24.056Z,13.52
2018-09-22T03:44:24.112Z,13.60
2018-09-22T03:45:24.172Z,13.54
2018-09-22T03:46:24.236Z,13.60
2018-09-22T03:47:24.300Z,13.63
2018-09-22T03:48:24.463Z,13.60
2018-09-22T03:49:24.424Z,13.59
2018-09-22T03:50:24.484Z,13.57
2018-09-22T03:51:24.548Z,13.59
2018-09-22T03:52:24.612Z,13.52
2018-09-22T03:53:24.683Z,13.53
2018-09-22T03:54:24.744Z,13.47
2018-09-22T03:55:24.800Z,13.59
2018-09-22T03:56:24.860Z,13.52
2018-09-22T03:57:24.925Z,13.54
2018-09-22T03:58:24.996Z,13.49
2018-09-22T03:59:25.056Z,13.59
2018-09-22T04:00:25.115Z,13.62
2018-09-22T04:01:25.184Z,13.56
2018-09-22T04:02:25.236Z,13.65
2018-09-22T04:03:25.300Z,13.63
2018-09-22T04:04:25.632Z,13.65
2018-09-22T04:05:25.424Z,13.65
2018-09-22T04:06:25.488Z,13.62
2018-09-22T04:07:25.560Z,13.60
2018-09-22T04:08:25.612Z,13.67
2018-09-22T04:09:25.681Z,13.68
2018-09-22T04:10:25.791Z,13.65
2018-09-22T04:11:25.802Z,13.67
2018-09-22T04:12:25.864Z,13.67
2018-09-22T04:13:25.953Z,13.68
2018-09-22T04:14:25.997Z,13.67
2018-09-22T04:15:26.057Z,13.70
2018-09-22T04:16:26.116Z,13.68
2018-09-22T04:17:26.181Z,13.63
2018-09-22T04:18:26.245Z,13.62
2018-09-22T04:19:26.715Z,13.59
2018-09-22T04:20:26.365Z,13.62
2018-09-22T04:21:26.426Z,13.50
2018-09-22T04:22:26.489Z,13.44
2018-09-22T04:23:26.561Z,13.49
2018-09-22T04:24:26.613Z,13.50
2018-09-22T04:25:26.781Z,13.50
2018-09-22T04:26:26.737Z,13.47
2018-09-22T04:27:26.806Z,13.50
2018-09-22T04:28:26.865Z,13.49
2018-09-22T04:29:26.925Z,13.46
2018-09-22T04:30:27.001Z,13.52
2018-09-22T04:31:27.059Z,13.49
2018-09-22T04:32:27.115Z,13.47
2018-09-22T04:33:27.237Z,13.39
2018-09-22T04:34:27.238Z,13.30
2018-09-22T04:35:27.302Z,13.31
2018-09-22T04:36:27.562Z,13.27
2018-09-22T04:37:27.426Z,13.28
2018-09-22T04:38:27.493Z,13.39
2018-09-22T04:39:27.554Z,13.31
2018-09-22T04:40:27.614Z,13.35
2018-09-22T04:41:27.686Z,13.28
2018-09-22T04:42:27.746Z,13.44
2018-09-22T04:43:27.801Z,13.35
2018-09-22T04:44:27.866Z,13.46
2018-09-22T04:45:27.925Z,13.35
2018-09-22T04:46:28.003Z,13.46
2018-09-22T04:47:28.058Z,13.41
2018-09-22T04:48:28.113Z,13.47
2018-09-22T04:49:28.178Z,13.39
2018-09-22T04:50:28.242Z,13.38
2018-09-22T04:51:28.302Z,13.33
2018-09-22T04:52:28.635Z,13.38
2018-09-22T04:53:28.430Z,13.30
2018-09-22T04:54:28.493Z,13.39
2018-09-22T04:55:28.554Z,13.28
2018-09-22T04:56:28.615Z,13.35
2018-09-22T04:57:28.683Z,13.38
2018-09-22T04:58:28.746Z,13.31
2018-09-22T04:59:28.808Z,13.33
2018-09-22T05:00:28.866Z,13.37
2018-09-22T05:01:28.927Z,13.30
2018-09-22T05:02:28.999Z,13.35
2018-09-22T05:03:29.062Z,13.37
2018-09-22T05:04:29.115Z,13.38
2018-09-22T05:05:29.179Z,13.38
2018-09-22T05:06:29.238Z,13.37
2018-09-22T05:07:29.302Z,13.33
2018-09-22T05:08:29.471Z,13.31
2018-09-22T05:09:29.431Z,13.31
2018-09-22T05:10:29.490Z,13.30
2018-09-22T05:11:29.551Z,13.33
2018-09-22T05:12:29.615Z,13.31
2018-09-22T05:13:29.683Z,13.30
2018-09-22T05:14:29.747Z,13.30
2018-09-22T05:15:29.803Z,13.20
2018-09-22T05:16:29.867Z,13.28
2018-09-22T05:17:29.927Z,13.25
2018-09-22T05:18:29.995Z,13.30
2018-09-22T05:19:30.059Z,13.22
2018-09-22T05:20:30.115Z,13.28
2018-09-22T05:21:30.179Z,13.33
2018-09-22T05:22:30.239Z,13.13
2018-09-22T05:23:30.304Z,13.22
2018-09-22T05:24:30.391Z,13.20
2018-09-22T05:25:30.428Z,13.16
2018-09-22T05:26:30.496Z,13.19
2018-09-22T05:27:30.551Z,13.16
2018-09-22T05:28:30.616Z,13.15
2018-09-22T05:29:30.683Z,13.19
2018-09-22T05:30:30.748Z,13.22
2018-09-22T05:31:30.804Z,13.16
2018-09-22T05:32:30.864Z,13.12
2018-09-22T05:33:30.966Z,13.18
2018-09-22T05:34:30.996Z,13.15
2018-09-22T05:35:31.087Z,13.18
2018-09-22T05:36:31.116Z,13.20
2018-09-22T05:37:31.177Z,13.23
2018-09-22T05:38:31.245Z,13.19
2018-09-22T05:39:31.305Z,13.18
2018-09-22T05:40:31.464Z,13.20
2018-09-22T05:41:31.458Z,13.13
2018-09-22T05:42:31.488Z,13.16
2018-09-22T05:43:31.556Z,13.19
2018-09-22T05:44:31.620Z,13.30
2018-09-22T05:45:31.684Z,13.22
2018-09-22T05:46:31.748Z,13.28
2018-09-22T05:47:31.804Z,13.18
2018-09-22T05:48:31.861Z,13.18
2018-09-22T05:49:31.928Z,13.18
2018-09-22T05:50:31.996Z,13.30
2018-09-22T05:51:32.061Z,13.28
2018-09-22T05:52:32.168Z,13.30
2018-09-22T05:53:32.189Z,13.25
2018-09-22T05:54:32.241Z,13.25
2018-09-22T05:55:32.304Z,13.35
2018-09-22T05:56:32.632Z,13.23
2018-09-22T05:57:32.428Z,13.31
2018-09-22T05:58:32.492Z,13.30
2018-09-22T05:59:32.553Z,13.28
2018-09-22T06:00:32.617Z,13.37
2018-09-22T06:01:32.685Z,13.31
2018-09-22T06:02:32.746Z,13.37
2018-09-22T06:03:32.813Z,13.28
2018-09-22T06:04:32.866Z,13.25
2018-09-22T06:05:32.929Z,13.44
2018-09-22T06:06:32.997Z,13.41
2018-09-22T06:07:33.061Z,13.46
2018-09-22T06:08:33.117Z,13.50
2018-09-22T06:09:33.216Z,13.63
2018-09-22T06:10:33.241Z,13.65
2018-09-22T06:11:33.426Z,13.74
2018-09-22T06:12:33.369Z,13.75
2018-09-22T06:13:33.429Z,13.79
2018-09-22T06:14:33.493Z,13.81
2018-09-22T06:15:33.558Z,13.78
2018-09-22T06:16:33.625Z,13.70
2018-09-22T06:17:33.686Z,13.70
2018-09-22T06:18:33.742Z,13.86
2018-09-22T06:19:33.813Z,13.78
2018-09-22T06:20:33.870Z,13.90
2018-09-22T06:21:33.938Z,13.86
2018-09-22T06:22:34.000Z,13.90
2018-09-22T06:23:34.116Z,13.97
2018-09-22T06:24:34.124Z,13.97
2018-09-22T06:25:34.182Z,13.89
2018-09-22T06:26:34.242Z,13.96
2018-09-22T06:27:34.330Z,13.92
2018-09-22T06:28:34.370Z,13.92
2018-09-22T06:29:34.436Z,14.00
2018-09-22T06:30:34.494Z,13.99
2018-09-22T06:31:34.558Z,13.87
2018-09-22T06:32:34.626Z,14.04
2018-09-22T06:33:34.690Z,13.87
2018-09-22T06:34:34.751Z,13.99
2018-09-22T06:35:34.810Z,13.96
2018-09-22T06:36:34.871Z,14.03
2018-09-22T06:37:35.030Z,14.05
2018-09-22T06:38:35.006Z,14.15
2018-09-22T06:39:35.058Z,14.26
2018-09-22T06:40:35.123Z,14.18
2018-09-22T06:41:35.186Z,14.29
2018-09-22T06:42:35.275Z,14.18
2018-09-22T06:43:35.310Z,14.20
2018-09-22T06:44:35.375Z,14.12
2018-09-22T06:45:35.439Z,14.23
2018-09-22T06:46:35.501Z,14.25
2018-09-22T06:47:35.571Z,14.25
2018-09-22T06:48:35.635Z,14.36
2018-09-22T06:49:35.689Z,14.30
2018-09-22T06:50:35.751Z,14.35
2018-09-22T06:51:35.815Z,14.36
2018-09-22T06:52:35.887Z,14.35
2018-09-22T06:53:35.952Z,14.32
2018-09-22T06:54:36.003Z,14.37
2018-09-22T06:55:36.067Z,14.41
2018-09-22T06:56:36.132Z,14.33
2018-09-22T06:57:36.287Z,14.33
2018-09-22T06:58:36.255Z,14.41
2018-09-22T06:59:36.319Z,14.51
2018-09-22T07:00:36.383Z,14.55
2018-09-22T07:01:36.446Z,14.45
2018-09-22T07:02:36.519Z,14.59
2018-09-22T07:03:36.583Z,14.66
2018-09-22T07:04:36.635Z,14.58
2018-09-22T07:05:36.699Z,14.62
2018-09-22T07:06:36.760Z,14.69
2018-09-22T07:07:36.836Z,14.69
2018-09-22T07:08:36.895Z,14.70
2018-09-22T07:09:36.948Z,14.81
2018-09-22T07:10:37.022Z,14.86
2018-09-22T07:11:37.076Z,14.96
2018-09-22T07:12:37.139Z,14.96
2018-09-22T07:13:37.261Z,15.11
2018-09-22T07:14:37.264Z,15.14
2018-09-22T07:15:37.328Z,15.18
2018-09-22T07:16:37.391Z,15.33
2018-09-22T07:17:37.456Z,15.31
2018-09-22T07:18:37.530Z,15.43
2018-09-22T07:19:37.663Z,15.27
2018-09-22T07:20:37.644Z,15.36
2018-09-22T07:21:37.708Z,15.35
2018-09-22T07:22:37.772Z,15.35
2018-09-22T07:23:37.844Z,15.36
2018-09-22T07:24:37.904Z,15.31
2018-09-22T07:25:37.960Z,15.31
2018-09-22T07:26:38.024Z,15.28
2018-09-22T07:27:38.088Z,15.29
2018-09-22T07:28:38.152Z,15.36
2018-09-22T07:29:38.256Z,15.33
2018-09-22T07:30:38.288Z,15.28
2018-09-22T07:31:38.345Z,15.37
2018-09-22T07:32:38.413Z,15.28
2018-09-22T07:33:38.471Z,15.27
2018-09-22T07:34:38.545Z,15.25
2018-09-22T07:35:38.604Z,15.24
2018-09-22T07:36:38.661Z,15.29
2018-09-22T07:37:38.728Z,15.27
2018-09-22T07:38:38.789Z,15.27
2018-09-22T07:39:38.870Z,15.39
2018-09-22T07:40:38.929Z,15.37
2018-09-22T07:41:38.980Z,15.40
2018-09-22T07:42:39.040Z,15.42
2018-09-22T07:43:39.105Z,15.42
2018-09-22T07:44:39.185Z,15.43
2018-09-22T07:45:39.264Z,15.43
2018-09-22T07:46:39.297Z,15.46
2018-09-22T07:47:39.361Z,15.61
2018-09-22T07:48:39.436Z,15.72
2018-09-22T07:49:39.493Z,15.90
2018-09-22T07:50:39.558Z,15.98
2018-09-22T07:51:39.614Z,16.00
2018-09-22T07:52:39.678Z,16.15
2018-09-22T07:53:39.746Z,16.23
2018-09-22T07:54:39.821Z,16.13
2018-09-22T07:55:39.878Z,16.15
2018-09-22T07:56:39.934Z,16.15
2018-09-22T07:57:39.998Z,16.26
2018-09-22T07:58:40.062Z,16.23
2018-09-22T07:59:40.126Z,16.38
2018-09-22T08:00:40.218Z,16.50
2018-09-22T08:01:40.270Z,16.51
2018-09-22T08:02:40.318Z,16.75
2018-09-22T08:03:40.382Z,16.81
2018-09-22T08:04:40.446Z,16.96
2018-09-22T08:05:40.518Z,16.84
2018-09-22T08:06:40.586Z,16.87
2018-09-22T08:07:40.638Z,16.78
2018-09-22T08:08:40.702Z,16.72
2018-09-22T08:09:40.766Z,16.51
2018-09-22T08:10:40.838Z,16.64
2018-09-22T08:11:40.947Z,16.51
2018-09-22T08:12:40.958Z,16.35
2018-09-22T08:13:41.025Z,16.43
2018-09-22T08:14:41.093Z,16.47
2018-09-22T08:15:41.242Z,16.64
2018-09-22T08:16:41.219Z,16.66
2018-09-22T08:17:41.279Z,16.94
2018-09-22T08:18:41.350Z,16.89
2018-09-22T08:19:41.411Z,16.94
2018-09-22T08:20:41.529Z,16.97
2018-09-22T08:21:41.546Z,16.96
2018-09-22T08:22:41.606Z,16.90
2018-09-22T08:23:41.666Z,16.86
2018-09-22T08:24:41.731Z,16.81
2018-09-22T08:25:41.806Z,16.69
2018-09-22T08:26:41.867Z,16.81
2018-09-22T08:27:41.928Z,16.75
2018-09-22T08:28:41.991Z,16.75
2018-09-22T08:29:42.056Z,16.75
2018-09-22T08:30:42.359Z,16.75
2018-09-22T08:31:42.186Z,16.79
2018-09-22T08:32:42.247Z,16.83
2018-09-22T08:33:42.312Z,16.79
2018-09-22T08:34:42.375Z,16.76
2018-09-22T08:35:42.485Z,16.83
2018-09-22T08:36:42.663Z,16.89
2018-09-22T08:37:42.567Z,16.84
2018-09-22T08:38:42.636Z,16.81
2018-09-22T08:39:42.699Z,16.76
2018-09-22T08:40:42.773Z,16.76
2018-09-22T08:41:42.835Z,16.84
2018-09-22T08:42:42.892Z,16.90
2018-09-22T08:43:42.978Z,16.99
2018-09-22T08:44:43.059Z,17.05
2018-09-22T08:45:43.108Z,17.12
2018-09-22T08:46:43.147Z,17.24
2018-09-22T08:47:43.212Z,17.27
2018-09-22T08:48:43.280Z,17.42
2018-09-22T08:49:43.426Z,17.48
2018-09-22T08:50:43.412Z,17.46
2018-09-22T08:51:43.480Z,17.46
2018-09-22T08:52:43.536Z,17.78
2018-09-22T08:53:43.600Z,18.26
2018-09-22T08:54:43.670Z,18.60
2018-09-22T08:55:43.736Z,19.22
2018-09-22T08:56:43.804Z,19.70
2018-09-22T08:57:43.913Z,20.21
2018-09-22T08:58:43.924Z,20.37
2018-09-22T08:59:43.992Z,20.60
2018-09-22T09:00:44.064Z,20.87
2018-09-22T09:01:44.129Z,21.11
2018-09-22T09:02:44.188Z,21.27
2018-09-22T09:03:44.252Z,21.50
2018-09-22T09:04:44.321Z,21.62
2018-09-22T09:05:44.520Z,21.66
2018-09-22T09:06:44.460Z,21.83
2018-09-22T09:07:44.524Z,22.04
2018-09-22T09:08:44.585Z,22.18
2018-09-22T09:09:44.656Z,21.99
2018-09-22T09:10:44.725Z,22.00
2018-09-22T09:11:44.793Z,22.04
2018-09-22T09:12:44.853Z,21.96
2018-09-22T09:13:44.981Z,21.76
2018-09-22T09:14:45.010Z,21.24
2018-09-22T09:15:45.061Z,21.09
2018-09-22T09:16:45.133Z,20.78
2018-09-22T09:17:45.189Z,20.60
2018-09-22T09:18:45.257Z,20.75
2018-09-22T09:19:45.328Z,20.84
2018-09-22T09:20:45.445Z,21.06
2018-09-22T09:21:45.465Z,20.77
2018-09-22T09:22:45.525Z,20.92
2018-09-22T09:23:45.593Z,21.11
2018-09-22T09:24:45.664Z,21.25
2018-09-22T09:25:45.733Z,21.57
2018-09-22T09:26:45.801Z,21.45
2018-09-22T09:27:45.861Z,21.70
2018-09-22T09:28:45.934Z,21.43
2018-09-22T09:29:45.993Z,21.50
2018-09-22T09:30:46.069Z,21.70
2018-09-22T09:31:46.143Z,22.08
2018-09-22T09:32:46.197Z,21.98
2018-09-22T09:33:46.266Z,22.20
2018-09-22T09:34:46.334Z,22.11
2018-09-22T09:35:46.406Z,21.95
2018-09-22T09:36:46.478Z,22.00
2018-09-22T09:37:46.543Z,22.00
2018-09-22T09:38:46.610Z,21.55
2018-09-22T09:39:46.670Z,21.76
2018-09-22T09:40:46.742Z,21.37
2018-09-22T09:41:46.810Z,21.12
2018-09-22T09:42:46.870Z,20.93
2018-09-22T09:43:47.010Z,20.95
2018-09-22T09:44:47.006Z,20.69
2018-09-22T09:45:47.093Z,20.48
2018-09-22T09:46:47.141Z,20.48
2018-09-22T09:47:47.205Z,20.36
2018-09-22T09:48:47.274Z,20.19
2018-09-22T09:49:47.342Z,19.92
2018-09-22T09:50:47.413Z,19.76
2018-09-22T09:51:47.482Z,19.66
2018-09-22T09:52:47.544Z,19.55
2018-09-22T09:53:47.610Z,19.51
2018-09-22T09:54:47.723Z,19.45
2018-09-22T09:55:47.751Z,19.40
2018-09-22T09:56:47.818Z,19.45
2018-09-22T09:57:47.879Z,19.34
2018-09-22T09:58:47.942Z,19.44
2018-09-22T09:59:48.016Z,19.41
2018-09-22T10:00:48.174Z,19.52
2018-09-22T10:01:48.142Z,19.54
2018-09-22T10:02:48.210Z,19.47
2018-09-22T10:03:48.278Z,19.47
2018-09-22T10:04:48.343Z,19.55
2018-09-22T10:05:48.422Z,19.51
2018-09-22T10:06:48.482Z,19.63
2018-09-22T10:07:48.542Z,19.52
2018-09-22T10:08:48.611Z,19.58
2018-09-22T10:09:48.675Z,19.41
2018-09-22T10:10:48.754Z,19.21
2018-09-22T10:11:48.860Z,19.24
2018-09-22T10:12:48.874Z,19.18
2018-09-22T10:13:48.942Z,19.22
2018-09-22T10:14:49.007Z,19.15
2018-09-22T10:15:49.186Z,19.12
2018-09-22T10:16:49.143Z,19.15
2018-09-22T10:17:49.206Z,19.22
2018-09-22T10:18:49.275Z,19.22
2018-09-22T10:19:49.339Z,19.24
2018-09-22T10:20:49.423Z,19.16
2018-09-22T10:21:49.479Z,19.24
2018-09-22T10:22:49.539Z,19.31
2018-09-22T10:23:49.603Z,19.44
2018-09-22T10:24:49.710Z,19.36
2018-09-22T10:25:49.743Z,19.33
2018-09-22T10:26:49.811Z,19.21
2018-09-22T10:27:49.867Z,19.16
2018-09-22T10:28:49.994Z,19.21
2018-09-22T10:29:49.999Z,19.21
2018-09-22T10:30:50.175Z,19.18
2018-09-22T10:31:50.131Z,19.07
2018-09-22T10:32:50.199Z,19.00
2018-09-22T10:33:50.264Z,19.08
2018-09-22T10:34:50.331Z,19.08
2018-09-22T10:35:50.404Z,19.11
2018-09-22T10:36:50.472Z,19.21
2018-09-22T10:37:50.827Z,19.24
2018-09-22T10:38:50.847Z,19.27
2018-09-22T10:39:50.724Z,19.21
2018-09-22T10:40:50.736Z,19.14
2018-09-22T10:41:50.799Z,19.19
2018-09-22T10:42:50.856Z,19.04
2018-09-22T10:43:50.923Z,19.07
2018-09-22T10:44:50.988Z,19.07
2018-09-22T10:45:51.060Z,19.11
2018-09-22T10:46:51.128Z,19.11
2018-09-22T10:47:51.188Z,19.16
2018-09-22T10:48:51.252Z,19.19
2018-09-22T10:49:51.316Z,19.21
2018-09-22T10:50:51.392Z,19.12
2018-09-22T10:51:51.456Z,19.00
2018-09-22T10:52:51.608Z,18.98
2018-09-22T10:53:51.594Z,18.96
2018-09-22T10:54:51.651Z,19.00
2018-09-22T10:55:51.721Z,19.04
2018-09-22T10:56:51.784Z,19.18
2018-09-22T10:57:51.845Z,18.98
2018-09-22T10:58:51.909Z,18.93
2018-09-22T10:59:55.350Z,18.93
2018-09-22T11:00:52.049Z,18.77
2018-09-22T11:01:52.113Z,18.81
2018-09-22T11:02:54.585Z,18.80
2018-09-22T11:03:54.941Z,18.68
2018-09-22T11:04:54.776Z,18.77
2018-09-22T11:05:56.276Z,18.81
2018-09-22T11:06:54.254Z,18.80
2018-09-22T11:07:54.057Z,18.81
2018-09-22T11:08:52.590Z,18.81
2018-09-22T11:09:52.629Z,18.88
2018-09-22T11:10:52.697Z,18.92
2018-09-22T11:11:52.786Z,18.96
2018-09-22T11:12:52.829Z,18.80
2018-09-22T11:13:52.893Z,18.95
2018-09-22T11:14:52.961Z,18.80
2018-09-22T11:15:53.025Z,18.74
2018-09-22T11:16:53.449Z,18.70
2018-09-22T11:17:53.154Z,18.70
2018-09-22T11:18:53.226Z,18.65
2018-09-22T11:19:53.285Z,18.63
2018-09-22T11:20:53.350Z,18.70
2018-09-22T11:21:53.413Z,18.77
2018-09-22T11:22:53.502Z,18.86
2018-09-22T11:23:53.546Z,18.73
2018-09-22T11:24:53.614Z,18.95
2018-09-22T11:25:53.681Z,18.93
2018-09-22T11:26:53.780Z,18.93
2018-09-22T11:27:53.818Z,18.84
2018-09-22T11:28:53.882Z,18.88
2018-09-22T11:29:53.945Z,18.89
2018-09-22T11:30:54.011Z,18.93
2018-09-22T11:31:54.070Z,18.93
2018-09-22T11:32:54.250Z,18.89
2018-09-22T11:33:54.198Z,18.88
2018-09-22T11:34:54.269Z,18.96
2018-09-22T11:35:54.330Z,18.90
2018-09-22T11:36:54.394Z,18.99
2018-09-22T11:37:54.466Z,18.95
2018-09-22T11:38:54.534Z,19.02
2018-09-22T11:39:54.593Z,19.12
2018-09-22T11:40:54.658Z,19.18
2018-09-22T11:41:54.722Z,19.11
2018-09-22T11:42:54.794Z,19.29
2018-09-22T11:43:54.858Z,19.48
2018-09-22T11:44:54.921Z,19.64
2018-09-22T11:45:54.986Z,19.74
2018-09-22T11:46:55.046Z,19.95
2018-09-22T11:47:55.142Z,19.95
2018-09-22T11:48:55.178Z,20.14
2018-09-22T11:49:55.243Z,20.26
2018-09-22T11:50:55.310Z,20.16
2018-09-22T11:51:55.435Z,20.26
2018-09-22T11:52:55.446Z,20.28
2018-09-22T11:53:55.678Z,20.26
2018-09-22T11:54:55.573Z,20.22
2018-09-22T11:55:55.639Z,20.07
2018-09-22T11:56:55.702Z,19.85
2018-09-22T11:57:55.794Z,19.58
2018-09-22T11:58:55.839Z,19.59
2018-09-22T11:59:55.899Z,19.48
2018-09-22T12:00:55.971Z,19.39
2018-09-22T12:01:56.072Z,19.36
2018-09-22T12:02:56.236Z,19.40
2018-09-22T12:03:56.163Z,19.39
2018-09-22T12:04:56.230Z,19.34
2018-09-22T12:05:56.311Z,19.40
2018-09-22T12:06:56.363Z,19.16
2018-09-22T12:07:56.432Z,19.30
2018-09-22T12:08:56.499Z,19.33
2018-09-22T12:09:56.556Z,19.37
2018-09-22T12:10:56.620Z,19.31
2018-09-22T12:11:56.691Z,19.24
2018-09-22T12:12:56.759Z,19.19
2018-09-22T12:13:56.832Z,18.98
2018-09-22T12:14:56.884Z,18.96
2018-09-22T12:15:56.948Z,18.83
2018-09-22T12:16:57.022Z,18.77
2018-09-22T12:17:57.193Z,18.70
2018-09-22T12:18:57.144Z,18.78
2018-09-22T12:19:57.211Z,18.86
2018-09-22T12:20:57.275Z,18.89
2018-09-22T12:21:57.340Z,18.74
2018-09-22T12:22:57.415Z,18.89
2018-09-22T12:23:57.480Z,18.96
2018-09-22T12:24:57.536Z,19.00
2018-09-22T12:25:57.606Z,18.98
2018-09-22T12:26:57.668Z,19.09
2018-09-22T12:27:57.740Z,19.02
2018-09-22T12:28:57.808Z,19.00
2018-09-22T12:29:57.868Z,19.00
2018-09-22T12:30:57.928Z,18.95
2018-09-22T12:31:58.008Z,18.99
2018-09-22T12:32:58.064Z,18.96
2018-09-22T12:33:58.132Z,18.99
2018-09-22T12:34:58.188Z,19.00
2018-09-22T12:35:58.256Z,19.02
2018-09-22T12:36:58.320Z,19.11
2018-09-22T12:37:58.392Z,19.29
2018-09-22T12:38:58.460Z,19.44
2018-09-22T12:39:58.521Z,19.49
2018-09-22T12:40:58.580Z,19.67
2018-09-22T12:41:58.650Z,19.89
2018-09-22T12:42:58.717Z,19.96
2018-09-22T12:43:58.785Z,20.07
2018-09-22T12:44:58.844Z,20.07
2018-09-22T12:45:58.954Z,20.24
2018-09-22T12:46:58.972Z,20.22
2018-09-22T12:47:59.045Z,20.40
2018-09-22T12:48:59.109Z,20.34
2018-09-22T12:49:59.176Z,20.48
2018-09-22T12:50:59.237Z,20.56
2018-09-22T12:51:59.301Z,20.58
2018-09-22T12:52:59.401Z,20.34